createdAt,value
2023-05-24T00:01:25.891Z,98133.84
2023-05-24T00:03:54.426Z,98139.19
2023-05-24T00:06:21.845Z,98133.84
2023-05-24T00:08:49.595Z,98140.00
2023-05-24T00:11:17.021Z,98135.72
2023-05-24T00:13:44.912Z,98133.03
2023-05-24T00:16:12.315Z,98137.56
2023-05-24T00:18:41.090Z,98130.59
2023-05-24T00:21:08.607Z,98131.41
2023-05-24T00:23:38.642Z,98129.78
2023-05-24T00:26:06.439Z,98130.59
2023-05-24T00:28:34.900Z,98131.59
2023-05-24T00:31:02.309Z,98128.94
2023-05-24T00:33:29.898Z,98135.34
2023-05-24T00:35:57.300Z,98139.63
2023-05-24T00:38:26.628Z,98139.63
2023-05-24T00:40:57.880Z,98143.34
2023-05-24T00:43:25.495Z,98146.03
2023-05-24T00:46:14.165Z,98136.34
2023-05-24T00:48:42.900Z,98137.41
2023-05-24T00:51:11.649Z,98145.44
2023-05-24T00:53:41.369Z,98140.91
2023-05-24T00:56:09.299Z,98137.41
2023-05-24T00:58:37.189Z,98141.94
2023-05-24T01:01:05.080Z,98143.78
2023-05-24T01:03:33.780Z,98136.81
2023-05-24T01:06:04.769Z,98138.69
2023-05-24T01:08:42.628Z,98141.34
2023-05-24T01:11:47.269Z,98140.53
2023-05-24T01:14:26.744Z,98140.53
2023-05-24T01:17:14.992Z,98152.25
2023-05-24T01:20:14.899Z,98147.97
2023-05-24T01:23:13.845Z,98150.66
2023-05-24T01:25:49.355Z,98152.47
2023-05-24T01:28:18.697Z,98155.41
2023-05-24T01:30:47.330Z,98151.66
2023-05-24T01:33:14.728Z,98150.03
2023-05-24T01:35:42.707Z,98159.09
2023-05-24T01:38:14.352Z,98159.09
2023-05-24T01:40:42.900Z,98152.13
2023-05-24T01:43:28.837Z,98167.31
2023-05-24T01:46:12.124Z,98166.50
2023-05-24T01:49:30.856Z,98168.16
2023-05-24T01:52:11.429Z,98172.91
2023-05-24T01:54:44.535Z,98170.25
2023-05-24T01:57:13.095Z,98175.59
2023-05-24T01:59:43.397Z,98180.94
2023-05-24T02:02:12.252Z,98180.94
2023-05-24T02:04:40.140Z,98178.47
2023-05-24T02:07:07.693Z,98186.50
2023-05-24T02:09:35.468Z,98187.53
2023-05-24T02:12:03.691Z,98181.34
2023-05-24T02:14:31.617Z,98192.06
2023-05-24T02:17:00.776Z,98186.72
2023-05-24T02:19:28.205Z,98188.78
2023-05-24T02:21:55.961Z,98188.78
2023-05-24T02:24:23.252Z,98189.84
2023-05-24T02:26:50.837Z,98190.84
2023-05-24T02:29:18.120Z,98202.38
2023-05-24T02:31:45.701Z,98195.38
2023-05-24T02:34:13.241Z,98190.84
2023-05-24T02:36:40.775Z,98198.31
2023-05-24T02:39:08.171Z,98198.31
2023-05-24T02:41:35.918Z,98200.97
2023-05-24T02:44:03.182Z,98202.00
2023-05-24T02:46:30.778Z,98199.31
2023-05-24T02:48:58.160Z,98203.06
2023-05-24T02:51:26.048Z,98204.06
2023-05-24T02:53:53.418Z,98208.41
2023-05-24T02:56:22.016Z,98207.78
2023-05-24T02:58:49.356Z,98213.13
2023-05-24T03:01:16.958Z,98217.66
2023-05-24T03:03:44.326Z,98211.50
2023-05-24T03:06:13.989Z,98213.34
2023-05-24T03:08:41.764Z,98212.53
2023-05-24T03:11:09.324Z,98215.22
2023-05-24T03:13:36.762Z,98210.88
2023-05-24T03:16:04.576Z,98212.75
2023-05-24T03:18:32.010Z,98213.56
2023-05-24T03:20:59.577Z,98211.94
2023-05-24T03:23:26.918Z,98213.56
2023-05-24T03:25:54.481Z,98217.28
2023-05-24T03:28:22.368Z,98219.16
2023-05-24T03:30:50.006Z,98211.13
2023-05-24T03:33:17.303Z,98211.13
2023-05-24T03:35:44.853Z,98218.31
2023-05-24T03:38:12.151Z,98214.81
2023-05-24T03:40:39.789Z,98207.03
2023-05-24T03:43:07.127Z,98223.06
2023-05-24T03:45:39.809Z,98217.72
2023-05-24T03:48:07.670Z,98221.44
2023-05-24T03:50:35.717Z,98223.06
2023-05-24T03:53:03.101Z,98217.72
2023-05-24T03:55:30.754Z,98226.78
2023-05-24T03:57:58.108Z,98226.78
2023-05-24T04:00:25.716Z,98225.13
2023-05-24T04:02:53.301Z,98235.81
2023-05-24T04:05:21.065Z,98235.81
2023-05-24T04:07:48.386Z,98240.34
2023-05-24T04:10:15.946Z,98241.16
2023-05-24T04:13:03.189Z,98246.50
2023-05-24T04:15:31.752Z,98243.84
2023-05-24T04:18:00.626Z,98246.50
2023-05-24T04:20:29.277Z,98252.91
2023-05-24T04:22:57.312Z,98248.56
2023-05-24T04:25:24.989Z,98248.56
2023-05-24T04:27:52.356Z,98264.59
2023-05-24T04:30:21.258Z,98262.19
2023-05-24T04:32:48.963Z,98268.34
2023-05-24T04:35:16.832Z,98273.69
2023-05-24T04:37:44.537Z,98273.69
2023-05-24T04:40:12.548Z,98268.34
2023-05-24T04:42:39.945Z,98281.91
2023-05-24T04:45:08.374Z,98281.91
2023-05-24T04:47:35.727Z,98277.41
2023-05-24T04:50:03.580Z,98286.22
2023-05-24T04:52:31.004Z,98285.41
2023-05-24T04:54:58.550Z,98288.91
2023-05-24T04:57:25.987Z,98285.63
2023-05-24T04:59:53.532Z,98301.66
2023-05-24T05:02:22.327Z,98303.53
2023-05-24T05:04:50.106Z,98313.16
2023-05-24T05:07:17.792Z,98317.09
2023-05-24T05:09:45.385Z,98317.09
2023-05-24T05:12:12.727Z,98318.09
2023-05-24T05:14:40.268Z,98326.38
2023-05-24T05:17:07.683Z,98329.03
2023-05-24T05:19:35.775Z,98341.56
2023-05-24T05:22:03.284Z,98346.09
2023-05-24T05:24:31.510Z,98349.81
2023-05-24T05:26:59.345Z,98355.16
2023-05-24T05:29:26.920Z,98351.88
2023-05-24T05:31:54.229Z,98354.53
2023-05-24T05:34:22.307Z,98355.56
2023-05-24T05:36:49.851Z,98353.13
2023-05-24T05:39:17.550Z,98364.63
2023-05-24T05:41:46.485Z,98368.31
2023-05-24T05:44:14.725Z,98364.00
2023-05-24T05:46:44.022Z,98372.03
2023-05-24T05:49:16.647Z,98371.19
2023-05-24T05:51:44.648Z,98374.06
2023-05-24T05:54:18.184Z,98378.59
2023-05-24T05:56:47.905Z,98378.81
2023-05-24T05:59:15.976Z,98382.53
2023-05-24T06:01:47.064Z,98385.19
2023-05-24T06:04:17.574Z,98387.03
2023-05-24T06:06:49.452Z,98388.88
2023-05-24T06:09:17.350Z,98399.56
2023-05-24T06:11:45.075Z,98397.09
2023-05-24T06:14:19.752Z,98401.63
2023-05-24T06:16:48.185Z,98403.69
2023-05-24T06:19:16.585Z,98410.09
2023-05-24T06:21:48.024Z,98409.47
2023-05-24T06:24:20.660Z,98412.97
2023-05-24T06:26:49.157Z,98427.13
2023-05-24T06:29:16.845Z,98430.84
2023-05-24T06:31:44.377Z,98438.25
2023-05-24T06:34:12.082Z,98441.94
2023-05-24T06:36:43.053Z,98445.66
2023-05-24T06:39:10.961Z,98451.81
2023-05-24T06:41:39.003Z,98451.81
2023-05-24T06:44:06.815Z,98457.16
2023-05-24T06:46:34.569Z,98457.97
2023-05-24T06:49:02.476Z,98456.34
2023-05-24T06:51:30.561Z,98466.22
2023-05-24T06:53:58.180Z,98468.88
2023-05-24T06:56:26.894Z,98466.41
2023-05-24T06:58:55.089Z,98470.72
2023-05-24T07:01:23.181Z,98469.88
2023-05-24T07:03:50.858Z,98473.59
2023-05-24T07:06:18.779Z,98470.72
2023-05-24T07:08:46.626Z,98477.69
2023-05-24T07:11:14.061Z,98477.69
2023-05-24T07:13:41.627Z,98483.84
2023-05-24T07:16:09.000Z,98485.72
2023-05-24T07:18:36.966Z,98492.06
2023-05-24T07:21:04.280Z,98493.94
2023-05-24T07:23:32.400Z,98503.81
2023-05-24T07:25:59.951Z,98504.84
2023-05-24T07:28:27.746Z,98504.84
2023-05-24T07:30:55.084Z,98497.84
2023-05-24T07:33:22.702Z,98504.84
2023-05-24T07:35:51.766Z,98514.50
2023-05-24T07:38:19.395Z,98504.84
2023-05-24T07:40:46.737Z,98510.19
2023-05-24T07:43:14.450Z,98508.53
2023-05-24T07:45:42.399Z,98520.03
2023-05-24T07:48:10.236Z,98525.59
2023-05-24T07:50:38.557Z,98521.28
2023-05-24T07:53:06.351Z,98521.28
2023-05-24T07:55:33.673Z,98523.75
2023-05-24T07:58:01.375Z,98522.94
2023-05-24T08:00:29.946Z,98521.06
2023-05-24T08:02:57.687Z,98528.28
2023-05-24T08:05:25.687Z,98528.28
2023-05-24T08:07:53.633Z,98528.47
2023-05-24T08:10:21.746Z,98536.50
2023-05-24T08:12:51.528Z,98534.00
2023-05-24T08:15:18.914Z,98543.06
2023-05-24T08:17:46.796Z,98538.53
2023-05-24T08:20:15.437Z,98536.06
2023-05-24T08:22:43.376Z,98534.44
2023-05-24T08:25:11.681Z,98549.44
2023-05-24T08:27:39.531Z,98550.47
2023-05-24T08:30:08.407Z,98555.81
2023-05-24T08:32:36.418Z,98556.63
2023-05-24T08:35:19.265Z,98561.16
2023-05-24T08:37:50.037Z,98571.22
2023-05-24T08:40:17.792Z,98573.88
2023-05-24T08:42:46.284Z,98582.91
2023-05-24T08:45:15.235Z,98581.28
2023-05-24T08:47:43.155Z,98591.97
2023-05-24T08:50:11.126Z,98591.16
2023-05-24T08:52:40.744Z,98591.34
2023-05-24T08:55:09.496Z,98595.03
2023-05-24T08:57:41.510Z,98605.72
2023-05-24T09:00:11.791Z,98604.91
2023-05-24T09:02:42.123Z,98605.72
2023-05-24T09:05:11.652Z,98610.84
2023-05-24T09:07:40.806Z,98602.84
2023-05-24T09:10:10.020Z,98611.69
2023-05-24T09:12:39.595Z,98615.38
2023-05-24T09:15:08.931Z,98613.72
2023-05-24T09:17:38.154Z,98623.59
2023-05-24T09:20:09.173Z,98620.09
2023-05-24T09:22:41.192Z,98635.31
2023-05-24T09:25:11.145Z,98635.50
2023-05-24T09:27:39.065Z,98637.19
2023-05-24T09:30:15.529Z,98646.19
2023-05-24T09:32:57.786Z,98649.91
2023-05-24T09:35:27.031Z,98647.00
2023-05-24T09:38:04.981Z,98654.41
2023-05-24T09:40:32.236Z,98655.25
2023-05-24T09:43:09.222Z,98653.59
2023-05-24T09:45:46.832Z,98653.59
2023-05-24T09:48:17.177Z,98655.25
2023-05-24T09:50:47.507Z,98655.25
2023-05-24T09:53:18.862Z,98650.91
2023-05-24T09:55:46.350Z,98652.56
2023-05-24T09:58:15.767Z,98650.91
2023-05-24T10:00:43.624Z,98655.44
2023-05-24T10:03:12.805Z,98657.31
2023-05-24T10:05:45.539Z,98661.59
2023-05-24T10:08:14.454Z,98652.78
2023-05-24T10:10:43.230Z,98653.59
2023-05-24T10:13:11.775Z,98661.59
2023-05-24T10:15:39.134Z,98663.44
2023-05-24T10:18:10.593Z,98676.00
2023-05-24T10:20:41.852Z,98666.31
2023-05-24T10:23:11.112Z,98675.38
2023-05-24T10:25:44.785Z,98677.81
2023-05-24T10:28:16.085Z,98684.00
2023-05-24T10:30:54.823Z,98682.34
2023-05-24T10:33:24.808Z,98685.00
2023-05-24T10:35:53.532Z,98686.06
2023-05-24T10:38:23.732Z,98679.06
2023-05-24T10:40:51.488Z,98680.72
2023-05-24T10:43:19.591Z,98679.06
2023-05-24T10:45:51.155Z,98682.34
2023-05-24T10:48:24.724Z,98685.22
2023-05-24T10:50:52.217Z,98688.72
2023-05-24T10:53:23.026Z,98680.72
2023-05-24T10:55:58.106Z,98690.34
2023-05-24T10:58:35.389Z,98693.03
2023-05-24T11:01:03.469Z,98686.06
2023-05-24T11:03:34.768Z,98695.88
2023-05-24T11:06:02.937Z,98691.38
2023-05-24T11:08:33.413Z,98695.06
2023-05-24T11:13:44.089Z,98684.63
2023-05-24T11:16:38.835Z,98684.38
2023-05-24T11:19:21.005Z,98683.38
2023-05-24T11:21:50.186Z,98681.72
2023-05-24T11:24:19.089Z,98680.72
2023-05-24T11:26:46.997Z,98686.06
2023-05-24T11:29:20.958Z,98688.72
2023-05-24T11:31:49.007Z,98686.06
2023-05-24T11:34:17.751Z,98686.06
2023-05-24T11:36:47.161Z,98690.34
2023-05-24T11:39:15.231Z,98698.38
2023-05-24T11:41:42.860Z,98684.00
2023-05-24T11:44:11.879Z,98688.31
2023-05-24T11:46:40.566Z,98682.97
2023-05-24T11:49:13.380Z,98689.97
2023-05-24T11:51:41.355Z,98695.31
2023-05-24T11:54:09.416Z,98692.63
2023-05-24T11:56:37.350Z,98694.25
2023-05-24T11:59:25.312Z,98689.75
2023-05-24T12:02:01.517Z,98686.88
2023-05-24T12:04:30.922Z,98688.72
2023-05-24T12:06:58.771Z,98687.69
2023-05-24T12:09:27.714Z,98688.50
2023-05-24T12:11:55.662Z,98688.13
2023-05-24T12:14:28.423Z,98685.44
2023-05-24T12:16:57.080Z,98689.34
2023-05-24T12:21:57.745Z,98688.94
2023-05-24T12:24:27.066Z,98697.56
2023-05-24T12:27:07.614Z,98688.53
2023-05-24T12:29:38.586Z,98690.16
2023-05-24T12:32:12.243Z,98694.50
2023-05-24T12:34:44.904Z,98686.50
2023-05-24T12:37:13.823Z,98681.16
2023-05-24T12:39:43.636Z,98690.97
2023-05-24T12:42:15.346Z,98685.88
2023-05-24T12:44:44.945Z,98691.84
2023-05-24T12:47:12.496Z,98694.50
2023-05-24T12:49:40.334Z,98689.34
2023-05-24T12:52:07.688Z,98690.97
2023-05-24T12:54:35.586Z,98690.16
2023-05-24T12:57:03.608Z,98691.22
2023-05-24T12:59:31.556Z,98686.50
2023-05-24T13:01:59.037Z,98684.81
2023-05-24T13:04:27.198Z,98690.16
2023-05-24T13:06:55.601Z,98698.00
2023-05-24T13:09:24.082Z,98698.81
2023-05-24T13:11:52.497Z,98693.47
2023-05-24T13:14:20.668Z,98693.47
2023-05-24T13:16:48.598Z,98690.78
2023-05-24T13:19:17.072Z,98690.78
2023-05-24T13:21:44.915Z,98689.97
2023-05-24T13:24:16.668Z,98688.13
2023-05-24T13:26:45.042Z,98693.47
2023-05-24T13:31:43.962Z,98693.47
2023-05-24T13:34:12.034Z,98693.47
2023-05-24T13:36:39.790Z,98693.47
2023-05-24T13:41:41.187Z,98695.09
2023-05-24T13:44:09.985Z,98696.94
2023-05-24T13:46:38.420Z,98700.44
2023-05-24T13:49:07.594Z,98698.00
2023-05-24T13:51:35.576Z,98699.63
2023-05-24T13:54:06.962Z,98693.47
2023-05-24T13:56:34.458Z,98695.09
2023-05-24T13:59:03.387Z,98695.09
2023-05-24T14:01:31.327Z,98695.09
2023-05-24T14:04:00.731Z,98695.09
2023-05-24T14:06:28.249Z,98689.75
2023-05-24T14:08:55.950Z,98685.25
2023-05-24T14:11:24.622Z,98687.06
2023-05-24T14:16:25.104Z,98690.59
2023-05-24T14:18:52.858Z,98684.41
2023-05-24T14:21:21.728Z,98679.06
2023-05-24T14:23:49.688Z,98682.78
2023-05-24T14:26:18.625Z,98672.91
2023-05-24T14:28:46.638Z,98682.78
2023-05-24T14:31:13.995Z,98688.13
2023-05-24T14:33:41.668Z,98682.78
2023-05-24T14:36:09.227Z,98689.75
2023-05-24T14:38:36.806Z,98684.63
2023-05-24T14:41:04.453Z,98678.47
2023-05-24T14:43:32.048Z,98681.16
2023-05-24T14:45:59.468Z,98676.63
2023-05-24T14:48:27.401Z,98687.50
2023-05-24T14:50:54.804Z,98686.50
2023-05-24T14:53:22.433Z,98686.69
2023-05-24T14:55:49.843Z,98681.34
2023-05-24T14:58:17.406Z,98688.53
2023-05-24T15:00:45.204Z,98683.19
2023-05-24T15:03:14.486Z,98683.19
2023-05-24T15:05:42.838Z,98685.88
2023-05-24T15:08:11.565Z,98682.34
2023-05-24T15:10:40.060Z,98685.25
2023-05-24T15:13:08.138Z,98694.91
2023-05-24T15:15:35.830Z,98686.88
2023-05-24T15:18:03.887Z,98694.06
2023-05-24T15:23:03.789Z,98695.94
2023-05-24T15:25:31.246Z,98695.94
2023-05-24T15:27:58.871Z,98703.09
2023-05-24T15:30:26.487Z,98701.28
2023-05-24T15:32:54.310Z,98708.44
2023-05-24T15:35:24.255Z,98707.63
2023-05-24T15:37:51.947Z,98707.63
2023-05-24T15:40:23.906Z,98704.97
2023-05-24T15:42:52.913Z,98715.63
2023-05-24T15:45:20.898Z,98715.63
2023-05-24T15:47:48.679Z,98717.50
2023-05-24T15:50:16.480Z,98719.34
2023-05-24T15:52:44.372Z,98714.00
2023-05-24T15:55:11.967Z,98715.84
2023-05-24T15:57:39.581Z,98717.69
2023-05-24T16:00:07.502Z,98723.03
2023-05-24T16:02:35.148Z,98717.69
2023-05-24T16:05:02.512Z,98718.72
2023-05-24T16:07:30.264Z,98715.03
2023-05-24T16:09:57.645Z,98706.38
2023-05-24T16:14:53.327Z,98706.38
2023-05-24T16:17:20.988Z,98707.22
2023-05-24T16:19:50.029Z,98714.41
2023-05-24T16:22:17.722Z,98711.09
2023-05-24T16:24:45.122Z,98717.28
2023-05-24T16:27:12.864Z,98723.66
2023-05-24T16:29:40.473Z,98721.78
2023-05-24T16:32:08.648Z,98737.63
2023-05-24T16:34:52.088Z,98732.47
2023-05-24T16:37:23.682Z,98738.84
2023-05-24T16:39:51.169Z,98740.50
2023-05-24T16:42:18.790Z,98748.50
2023-05-24T16:44:46.220Z,98743.16
2023-05-24T16:47:14.129Z,98746.88
2023-05-24T16:49:41.705Z,98751.41
2023-05-24T16:52:09.592Z,98755.88
2023-05-24T16:54:37.134Z,98761.22
2023-05-24T16:57:05.191Z,98755.88
2023-05-24T16:59:33.882Z,98764.94
2023-05-24T17:02:01.815Z,98764.13
2023-05-24T17:04:29.261Z,98766.56
2023-05-24T17:06:57.427Z,98767.63
2023-05-24T17:09:24.959Z,98780.16
2023-05-24T17:11:52.502Z,98781.16
2023-05-24T17:14:20.044Z,98779.31
2023-05-24T17:16:47.764Z,98780.34
2023-05-24T17:19:15.560Z,98779.53
2023-05-24T17:21:43.167Z,98781.38
2023-05-24T17:24:10.902Z,98785.06
2023-05-24T17:26:40.370Z,98792.06
2023-05-24T17:29:08.275Z,98790.41
2023-05-24T17:31:37.332Z,98794.94
2023-05-24T17:34:05.071Z,98795.75
2023-05-24T17:36:33.747Z,98794.13
2023-05-24T17:39:01.559Z,98797.78
2023-05-24T17:41:29.561Z,98799.44
2023-05-24T17:43:57.289Z,98797.78
2023-05-24T17:46:25.818Z,98796.16
2023-05-24T17:48:53.672Z,98801.50
2023-05-24T17:51:24.725Z,98804.16
2023-05-24T17:53:52.368Z,98802.50
2023-05-24T17:56:22.330Z,98809.69
2023-05-24T17:58:50.576Z,98808.88
2023-05-24T18:01:18.277Z,98816.91
2023-05-24T18:03:45.644Z,98813.81
2023-05-24T18:06:13.560Z,98812.59
2023-05-24T18:08:43.572Z,98818.78
2023-05-24T18:11:13.879Z,98823.69
2023-05-24T18:13:42.514Z,98836.00
2023-05-24T18:16:11.411Z,98831.72
2023-05-24T18:18:39.832Z,98832.72
2023-05-24T18:21:09.568Z,98844.44
2023-05-24T18:23:39.948Z,98835.59
2023-05-24T18:26:09.525Z,98836.84
2023-05-24T18:28:38.622Z,98839.50
2023-05-24T18:31:10.213Z,98844.00
2023-05-24T18:33:38.296Z,98848.53
2023-05-24T18:36:08.829Z,98861.06
2023-05-24T18:38:40.097Z,98847.91
2023-05-24T18:41:12.151Z,98859.41
2023-05-24T18:43:40.100Z,98858.59
2023-05-24T18:46:09.090Z,98861.25
2023-05-24T18:48:36.408Z,98871.13
2023-05-24T18:51:04.432Z,98864.97
2023-05-24T18:53:32.332Z,98876.47
2023-05-24T18:56:00.146Z,98866.78
2023-05-24T18:58:28.773Z,98876.66
2023-05-24T19:00:56.395Z,98876.66
2023-05-24T19:03:24.984Z,98876.66
2023-05-24T19:05:52.961Z,98880.34
2023-05-24T19:08:20.378Z,98882.00
2023-05-24T19:10:48.333Z,98880.34
2023-05-24T19:13:15.903Z,98885.69
2023-05-24T19:15:44.077Z,98888.38
2023-05-24T19:18:12.277Z,98890.22
2023-05-24T19:20:40.782Z,98889.38
2023-05-24T19:23:08.753Z,98889.38
2023-05-24T19:25:41.946Z,98894.72
2023-05-24T19:28:11.478Z,98899.22
2023-05-24T19:30:39.140Z,98906.44
2023-05-24T19:33:07.412Z,98917.13
2023-05-24T19:35:35.187Z,98909.09
2023-05-24T19:38:02.819Z,98904.75
2023-05-24T19:40:30.403Z,98907.44
2023-05-24T19:42:57.950Z,98906.63
2023-05-24T19:45:27.981Z,98899.44
2023-05-24T19:47:55.946Z,98902.09
2023-05-24T19:50:23.846Z,98903.13
2023-05-24T19:52:51.717Z,98904.75
2023-05-24T19:55:19.735Z,98900.47
2023-05-24T19:57:47.015Z,98900.47
2023-05-24T20:00:16.388Z,98905.81
2023-05-24T20:02:43.962Z,98903.13
2023-05-24T20:05:11.728Z,98903.13
2023-05-24T20:07:39.217Z,98904.13
2023-05-24T20:10:07.390Z,98897.16
2023-05-24T20:12:34.876Z,98899.84
2023-05-24T20:15:02.686Z,98901.47
2023-05-24T20:17:30.282Z,98890.16
2023-05-24T20:19:58.222Z,98892.81
2023-05-24T20:22:26.215Z,98890.16
2023-05-24T20:24:54.676Z,98902.50
2023-05-24T20:27:22.629Z,98894.50
2023-05-24T20:29:51.010Z,98896.34
2023-05-24T20:32:18.288Z,98902.50
2023-05-24T20:34:46.328Z,98904.34
2023-05-24T20:37:14.091Z,98900.03
2023-05-24T20:39:41.595Z,98901.69
2023-05-24T20:42:09.030Z,98889.34
2023-05-24T20:44:36.684Z,98891.81
2023-05-24T20:47:04.235Z,98892.81
2023-05-24T20:49:31.813Z,98899.22
2023-05-24T20:51:59.141Z,98894.69
2023-05-24T20:54:26.715Z,98891.19
2023-05-24T20:56:54.075Z,98892.22
2023-05-24T20:59:21.777Z,98893.88
2023-05-24T21:01:49.262Z,98894.69
2023-05-24T21:04:16.857Z,98891.19
2023-05-24T21:06:44.188Z,98904.53
2023-05-24T21:09:11.763Z,98896.53
2023-05-24T21:11:39.307Z,98897.56
2023-05-24T21:14:06.870Z,98898.38
2023-05-24T21:16:34.564Z,98902.91
2023-05-24T21:19:02.292Z,98903.91
2023-05-24T21:21:29.617Z,98906.59
2023-05-24T21:23:57.854Z,98906.59
2023-05-24T21:26:26.497Z,98909.25
2023-05-24T21:28:54.113Z,98906.59
2023-05-24T21:31:21.484Z,98906.59
2023-05-24T21:33:49.069Z,98907.63
2023-05-24T21:36:18.377Z,98911.09
2023-05-24T21:38:46.901Z,98913.78
2023-05-24T21:41:14.257Z,98919.31
2023-05-24T21:43:42.747Z,98920.97
2023-05-24T21:46:10.102Z,98921.97
2023-05-24T21:48:37.668Z,98915.63
2023-05-24T21:51:04.942Z,98923.81
2023-05-24T21:53:32.496Z,98924.66
2023-05-24T21:55:59.791Z,98912.34
2023-05-24T21:58:27.360Z,98913.97
2023-05-24T22:00:54.690Z,98917.66
2023-05-24T22:03:22.332Z,98929.16
2023-05-24T22:05:49.751Z,98936.38
2023-05-24T22:08:17.284Z,98939.03
2023-05-24T22:10:44.863Z,98942.69
2023-05-24T22:13:12.365Z,98941.88
2023-05-24T22:15:39.646Z,98940.84
2023-05-24T22:18:08.654Z,98942.69
2023-05-24T22:20:36.802Z,98935.72
2023-05-24T22:23:04.581Z,98940.03
2023-05-24T22:25:32.165Z,98948.03
2023-05-24T22:27:59.701Z,98946.41
2023-05-24T22:30:27.080Z,98953.38
2023-05-24T22:32:56.276Z,98950.91
2023-05-24T22:35:23.698Z,98959.75
2023-05-24T22:37:51.374Z,98954.59
2023-05-24T22:40:18.752Z,98951.75
2023-05-24T22:42:46.437Z,98954.59
2023-05-24T22:45:14.040Z,98956.25
2023-05-24T22:47:41.659Z,98959.13
2023-05-24T22:50:09.514Z,98958.31
2023-05-24T22:52:42.360Z,98952.97
2023-05-24T22:55:10.992Z,98963.66
2023-05-24T22:57:38.809Z,98954.78
2023-05-24T23:00:08.159Z,98958.50
2023-05-24T23:02:36.348Z,98957.47
2023-05-24T23:05:04.445Z,98959.31
2023-05-24T23:07:32.550Z,98962.81
2023-05-24T23:09:59.889Z,98961.16
2023-05-24T23:12:27.464Z,98966.50
2023-05-24T23:14:58.245Z,98978.81
2023-05-24T23:17:26.334Z,98972.84
2023-05-24T23:19:53.939Z,98970.19
2023-05-24T23:22:23.541Z,98969.34
2023-05-24T23:24:50.951Z,98973.69
2023-05-24T23:27:18.662Z,98972.84
2023-05-24T23:29:46.214Z,98971.03
2023-05-24T23:32:13.859Z,98970.19
2023-05-24T23:34:41.197Z,98969.34
2023-05-24T23:37:08.823Z,98963.19
2023-05-24T23:39:36.200Z,98960.53
2023-05-24T23:42:04.075Z,98965.06
2023-05-24T23:44:31.366Z,98973.06
2023-05-24T23:46:59.148Z,98974.88
2023-05-24T23:49:26.532Z,98972.22
2023-05-24T23:51:54.201Z,98966.88
2023-05-24T23:54:21.489Z,98974.88
2023-05-24T23:56:49.099Z,98961.53
2023-05-24T23:59:19.786Z,98966.06
